Time;durP1;ratioP1;P1;durP2;ratioP2;P2;SDS_P1;SDS_P2;PMS_P1;PMS_P2;Temp;Humidity;BMP_temperature;BMP_pressure;BME280_temperature;BME280_humidity;BME280_pressure;Samples;Min_cycle;Max_cycle;Signal;HPM_P1;HPM_P2
2022/07/10 00:00:29;;;;;;;4.18;1.30;;;25.50;50.50;;;;;;5032765;28;20112;-84
2022/07/10 00:02:55;;;;;;;2.50;1.10;;;25.50;50.40;;;;;;5032536;28;20041;-84
2022/07/10 00:05:22;;;;;;;1.30;0.80;;;25.50;50.30;;;;;;5038701;28;20037;-85
2022/07/10 00:07:49;;;;;;;1.73;0.68;;;25.50;50.00;;;;;;5033576;28;20059;-84
2022/07/10 00:10:15;;;;;;;3.42;1.40;;;25.60;49.90;;;;;;5043183;28;20036;-84
2022/07/10 00:12:41;;;;;;;4.50;0.95;;;25.50;50.40;;;;;;5042409;28;20017;-84
2022/07/10 00:15:08;;;;;;;6.13;1.50;;;25.50;50.60;;;;;;5043971;28;20040;-84
2022/07/10 00:17:35;;;;;;;1.45;0.80;;;25.20;50.70;;;;;;5043765;28;20021;-85
2022/07/10 00:20:01;;;;;;;2.38;1.10;;;25.00;50.90;;;;;;5039695;28;20040;-85
2022/07/10 00:22:26;;;;;;;3.67;1.00;;;25.00;50.90;;;;;;5037308;28;20036;-85
2022/07/10 00:24:52;;;;;;;3.08;1.77;;;25.10;51.00;;;;;;5027153;28;20084;-83
2022/07/10 00:27:18;;;;;;;2.40;0.90;;;25.00;50.70;;;;;;5059583;28;20484;-84
2022/07/10 00:29:44;;;;;;;2.35;0.93;;;25.20;50.50;;;;;;5043569;28;20029;-84
2022/07/10 00:32:10;;;;;;;2.00;1.20;;;25.30;50.30;;;;;;5040599;28;20375;-84
2022/07/10 00:34:37;;;;;;;2.40;1.00;;;25.50;50.00;;;;;;5038725;28;20025;-83
2022/07/10 00:37:03;;;;;;;1.25;0.80;;;25.50;49.80;;;;;;5028184;28;20522;-84
2022/07/10 00:39:29;;;;;;;1.00;0.63;;;25.50;49.90;;;;;;5044414;28;20171;-84
2022/07/10 00:42:05;;;;;;;2.40;0.75;;;25.50;49.60;;;;;;5051797;28;20484;-83
2022/07/10 00:44:30;;;;;;;1.90;0.93;;;25.60;49.50;;;;;;5046849;28;20060;-84
2022/07/10 00:46:56;;;;;;;1.20;0.70;;;25.60;49.40;;;;;;5041637;28;20064;-84
2022/07/10 00:49:22;;;;;;;1.35;0.68;;;25.60;49.20;;;;;;5043286;28;20029;-84
2022/07/10 00:51:47;;;;;;;1.02;0.50;;;25.60;48.90;;;;;;5044734;28;20029;-84
2022/07/10 00:54:13;;;;;;;2.08;0.82;;;25.70;48.90;;;;;;5044114;28;20040;-84
2022/07/10 00:56:39;;;;;;;0.90;0.50;;;25.70;48.80;;;;;;5037630;28;20029;-84
2022/07/10 00:59:05;;;;;;;1.40;0.70;;;25.80;48.80;;;;;;5047840;28;20154;-86
2022/07/10 01:01:32;;;;;;;2.42;1.00;;;25.80;48.60;;;;;;5051224;28;20052;-86
2022/07/10 01:03:58;;;;;;;1.02;0.65;;;25.80;48.50;;;;;;5043466;28;20040;-86
2022/07/10 01:06:24;;;;;;;1.58;0.90;;;25.70;48.30;;;;;;5037810;28;20400;-85
2022/07/10 01:08:49;;;;;;;1.00;0.70;;;25.70;48.30;;;;;;5045371;28;20489;-85
2022/07/10 01:11:15;;;;;;;1.20;0.60;;;25.60;48.20;;;;;;5042606;28;20512;-85
2022/07/10 01:13:43;;;;;;;2.33;0.82;;;25.60;48.10;;;;;;5048193;28;20028;-85
2022/07/10 01:16:08;;;;;;;1.98;0.75;;;25.70;47.90;;;;;;5049993;28;20055;-85
2022/07/10 01:18:34;;;;;;;3.53;0.90;;;25.70;47.60;;;;;;5019225;28;20458;-85
2022/07/10 01:21:00;;;;;;;3.28;0.60;;;25.70;47.10;;;;;;5035140;28;20454;-85
2022/07/10 01:23:26;;;;;;;1.70;0.47;;;25.40;47.10;;;;;;5038731;28;20528;-85
2022/07/10 01:25:51;;;;;;;2.33;0.88;;;25.50;47.30;;;;;;5029481;28;20025;-84
2022/07/10 01:28:20;;;;;;;1.90;0.73;;;25.40;47.40;;;;;;5054169;28;20374;-85
2022/07/10 01:30:46;;;;;;;2.25;0.90;;;25.30;47.70;;;;;;5040656;28;20038;-85
2022/07/10 01:33:12;;;;;;;1.10;0.55;;;25.00;48.10;;;;;;5048392;28;20025;-83
2022/07/10 01:35:38;;;;;;;1.25;0.68;;;25.10;48.00;;;;;;5044450;28;20052;-83
2022/07/10 01:38:04;;;;;;;2.38;0.93;;;24.90;48.50;;;;;;5049924;28;20045;-82
2022/07/10 01:40:29;;;;;;;1.63;0.80;;;24.90;48.80;;;;;;5043190;28;20025;-83
2022/07/10 01:42:55;;;;;;;2.90;1.00;;;24.90;48.40;;;;;;5039623;28;20063;-83
2022/07/10 01:45:21;;;;;;;1.00;0.50;;;25.00;48.60;;;;;;5041479;28;20458;-85
2022/07/10 01:47:46;;;;;;;1.48;0.68;;;25.10;48.30;;;;;;5040722;28;20032;-85
2022/07/10 01:50:12;;;;;;;1.23;0.70;;;25.20;48.60;;;;;;5044217;28;20462;-85
2022/07/10 01:52:38;;;;;;;1.05;0.50;;;25.20;48.30;;;;;;5048221;28;20078;-85
2022/07/10 01:55:05;;;;;;;2.80;0.90;;;25.30;48.30;;;;;;5042656;28;20060;-85
2022/07/10 01:57:31;;;;;;;5.13;1.00;;;25.30;48.40;;;;;;5047541;28;20635;-86
2022/07/10 01:59:56;;;;;;;2.33;1.00;;;25.00;48.60;;;;;;5025037;28;20041;-86
2022/07/10 02:02:22;;;;;;;1.05;0.57;;;24.90;48.70;;;;;;5033856;28;20482;-86
2022/07/10 02:04:48;;;;;;;1.55;0.85;;;25.00;48.70;;;;;;5040660;28;20024;-85
2022/07/10 02:07:17;;;;;;;3.95;0.93;;;25.10;48.90;;;;;;5039445;28;20390;-85
2022/07/10 02:09:43;;;;;;;1.52;1.00;;;25.10;48.80;;;;;;5045665;28;20461;-86
2022/07/10 02:12:10;;;;;;;0.82;0.52;;;25.00;49.10;;;;;;5046447;28;20099;-83
2022/07/10 02:14:37;;;;;;;4.63;1.10;;;25.00;49.00;;;;;;5024550;28;20416;-85
2022/07/10 02:17:03;;;;;;;2.08;0.70;;;25.00;49.20;;;;;;5026337;28;20021;-86
2022/07/10 02:19:29;;;;;;;1.70;1.05;;;24.90;49.20;;;;;;5026200;28;20028;-86
2022/07/10 02:21:55;;;;;;;1.00;0.77;;;24.90;49.50;;;;;;5042019;28;20029;-88
2022/07/10 02:24:21;;;;;;;2.10;1.15;;;24.90;49.50;;;;;;5043264;28;20033;-87
2022/07/10 02:26:46;;;;;;;1.42;1.00;;;24.90;49.60;;;;;;5041090;28;20029;-87
2022/07/10 02:29:12;;;;;;;6.07;1.20;;;24.80;49.60;;;;;;5036430;28;20112;-87
2022/07/10 02:31:40;;;;;;;1.20;0.70;;;24.80;49.80;;;;;;5041729;28;20120;-86
2022/07/10 02:34:14;;;;;;;2.95;1.10;;;24.80;49.60;;;;;;5037344;28;20065;-87
2022/07/10 02:36:40;;;;;;;1.92;0.88;;;24.80;50.10;;;;;;5044422;28;20021;-87
2022/07/10 02:39:07;;;;;;;1.17;0.57;;;24.80;49.70;;;;;;5034305;28;20102;-83
2022/07/10 02:41:34;;;;;;;2.03;0.88;;;24.80;49.70;;;;;;5035635;28;20025;-83
2022/07/10 02:44:00;;;;;;;3.40;1.38;;;24.80;49.70;;;;;;5038270;28;20122;-83
2022/07/10 02:46:26;;;;;;;2.30;0.90;;;24.70;49.90;;;;;;5044798;28;20084;-83
2022/07/10 02:48:52;;;;;;;4.45;1.33;;;24.70;49.90;;;;;;5039955;28;20553;-82
2022/07/10 02:51:17;;;;;;;2.15;0.90;;;24.50;50.50;;;;;;5034208;28;20104;-83
2022/07/10 02:53:43;;;;;;;4.00;1.05;;;24.50;50.50;;;;;;5046420;28;20079;-83
2022/07/10 02:56:09;;;;;;;2.60;0.98;;;24.50;50.50;;;;;;5042902;28;20056;-83
2022/07/10 02:58:34;;;;;;;3.28;1.00;;;24.50;50.40;;;;;;5047237;28;20504;-83
2022/07/10 03:01:00;;;;;;;1.88;0.85;;;24.50;50.20;;;;;;5059199;28;20078;-83
2022/07/10 03:03:26;;;;;;;1.83;0.82;;;24.60;50.10;;;;;;5035495;28;20385;-83
2022/07/10 03:05:52;;;;;;;1.73;1.08;;;24.60;50.00;;;;;;5037082;28;20071;-83
2022/07/10 03:08:17;;;;;;;1.05;0.70;;;24.70;50.20;;;;;;5036079;28;20112;-84
2022/07/10 03:10:43;;;;;;;2.90;0.73;;;24.60;50.00;;;;;;5037534;28;20032;-84
2022/07/10 03:13:09;;;;;;;1.70;0.70;;;24.60;49.90;;;;;;5037168;28;20032;-83
2022/07/10 03:15:35;;;;;;;0.68;0.45;;;24.70;49.90;;;;;;5042208;28;20044;-84
2022/07/10 03:18:01;;;;;;;1.50;1.02;;;24.80;49.80;;;;;;5044870;28;20043;-84
2022/07/10 03:20:27;;;;;;;1.23;0.70;;;24.80;49.80;;;;;;5045086;28;20032;-83
2022/07/10 03:22:52;;;;;;;2.13;0.75;;;24.80;49.60;;;;;;5044065;28;20068;-83
2022/07/10 03:25:18;;;;;;;2.85;0.60;;;24.90;49.60;;;;;;5041032;28;20377;-84
2022/07/10 03:27:44;;;;;;;1.00;0.63;;;24.80;49.50;;;;;;5054415;28;20033;-84
2022/07/10 03:30:10;;;;;;;2.53;0.90;;;24.80;49.50;;;;;;5040008;28;20017;-84
2022/07/10 03:32:36;;;;;;;1.42;0.85;;;24.80;49.50;;;;;;5039061;28;20120;-84
2022/07/10 03:35:02;;;;;;;5.85;0.88;;;24.60;49.50;;;;;;5048459;28;20425;-84
2022/07/10 03:37:27;;;;;;;1.42;0.60;;;24.50;49.80;;;;;;5038611;28;20040;-84
2022/07/10 03:39:53;;;;;;;3.92;0.90;;;24.60;49.80;;;;;;5041582;28;20074;-84
2022/07/10 03:42:19;;;;;;;2.55;1.05;;;24.50;49.90;;;;;;5026944;28;20059;-86
2022/07/10 03:44:45;;;;;;;1.75;0.70;;;24.50;49.90;;;;;;5047876;28;20133;-85
2022/07/10 03:47:11;;;;;;;0.75;0.70;;;24.60;50.00;;;;;;5049301;28;20024;-85
2022/07/10 03:49:38;;;;;;;2.47;0.88;;;24.50;49.90;;;;;;5048342;28;20138;-85
2022/07/10 03:52:05;;;;;;;2.28;0.90;;;24.50;50.20;;;;;;5046356;28;20427;-85
2022/07/10 03:54:31;;;;;;;0.60;0.40;;;24.40;50.60;;;;;;5040904;28;20018;-85
2022/07/10 03:59:42;;;;;;;1.60;0.80;;;24.50;50.50;;;;;;5044314;28;20645;-85
2022/07/10 04:02:08;;;;;;;1.75;0.88;;;24.40;51.00;;;;;;5048912;28;20124;-85
2022/07/10 04:04:33;;;;;;;2.47;0.73;;;24.30;51.20;;;;;;5050947;28;20489;-85
2022/07/10 04:06:59;;;;;;;3.97;0.88;;;24.20;51.30;;;;;;5035909;28;20036;-85
2022/07/10 04:09:25;;;;;;;1.75;0.90;;;24.20;51.10;;;;;;5045624;28;20114;-85
2022/07/10 04:11:51;;;;;;;1.98;0.85;;;24.20;51.70;;;;;;5037956;28;20028;-83
2022/07/10 04:14:17;;;;;;;1.10;0.60;;;24.10;51.50;;;;;;5049581;28;20032;-83
2022/07/10 04:16:42;;;;;;;4.15;1.00;;;24.10;51.50;;;;;;5038595;28;20040;-84
2022/07/10 04:19:08;;;;;;;2.03;0.95;;;24.20;52.00;;;;;;5044104;28;20109;-81
2022/07/10 04:21:34;;;;;;;1.77;1.00;;;24.20;51.80;;;;;;5048563;28;20419;-81
2022/07/10 04:23:59;;;;;;;5.93;1.60;;;24.20;51.90;;;;;;5044243;28;20029;-84
2022/07/10 04:26:25;;;;;;;3.35;1.42;;;24.20;52.10;;;;;;5049497;28;20029;-82
2022/07/10 04:28:51;;;;;;;4.40;1.80;;;24.10;52.00;;;;;;5052062;28;20040;-82
2022/07/10 04:31:16;;;;;;;5.85;2.10;;;24.20;52.00;;;;;;5041572;28;20075;-83
2022/07/10 04:33:42;;;;;;;2.72;1.67;;;24.30;52.00;;;;;;5037185;28;20446;-83
2022/07/10 04:36:08;;;;;;;3.80;1.90;;;24.30;51.60;;;;;;5041160;28;20064;-84
2022/07/10 04:38:33;;;;;;;2.72;1.67;;;24.30;51.80;;;;;;5050757;28;20595;-83
2022/07/10 04:40:59;;;;;;;4.70;1.90;;;24.40;51.60;;;;;;5042915;28;20060;-83
2022/07/10 04:43:25;;;;;;;5.07;2.28;;;24.40;51.80;;;;;;5037845;28;20094;-82
2022/07/10 04:45:51;;;;;;;6.07;2.33;;;24.40;52.10;;;;;;5041068;28;20036;-83
2022/07/10 04:48:17;;;;;;;3.65;1.65;;;24.30;52.20;;;;;;5048989;28;20029;-84
2022/07/10 04:50:42;;;;;;;2.25;1.40;;;24.20;52.50;;;;;;5050533;28;20441;-84
2022/07/10 04:53:08;;;;;;;4.22;1.80;;;24.10;52.60;;;;;;5045038;28;20017;-83
2022/07/10 04:55:33;;;;;;;4.30;1.52;;;24.20;53.10;;;;;;5045070;28;20074;-84
2022/07/10 04:57:59;;;;;;;2.45;1.20;;;24.20;52.80;;;;;;5039676;28;20065;-84
2022/07/10 05:00:25;;;;;;;3.97;1.85;;;24.20;52.80;;;;;;5025039;28;20052;-81
2022/07/10 05:02:50;;;;;;;5.30;1.90;;;24.20;53.40;;;;;;5040898;28;20036;-89
2022/07/10 05:05:16;;;;;;;2.25;1.30;;;24.30;53.50;;;;;;5053326;28;20033;-94
2022/07/10 05:07:42;;;;;;;2.88;1.30;;;24.30;52.90;;;;;;5043522;28;20107;-83
2022/07/10 05:10:08;;;;;;;3.70;1.33;;;24.40;53.30;;;;;;5035788;28;20696;-83
2022/07/10 05:12:34;;;;;;;2.17;1.00;;;24.50;53.50;;;;;;5042331;28;20014;-83
2022/07/10 05:15:00;;;;;;;4.63;1.35;;;24.50;53.20;;;;;;5051057;28;20036;-82
2022/07/10 05:17:29;;;;;;;2.75;1.10;;;24.70;53.10;;;;;;5025696;28;20436;-82
2022/07/10 05:19:56;;;;;;;4.32;1.45;;;24.80;52.90;;;;;;5037677;28;20533;-82
2022/07/10 05:22:22;;;;;;;4.18;1.52;;;24.80;52.70;;;;;;5023845;28;21735;-82
2022/07/10 05:24:48;;;;;;;3.10;1.30;;;24.80;51.70;;;;;;5037678;28;20504;-81
2022/07/10 05:27:16;;;;;;;1.70;1.10;;;24.80;52.80;;;;;;5058210;28;20032;-81
2022/07/10 05:29:41;;;;;;;2.80;1.10;;;24.80;52.20;;;;;;5039679;28;20019;-82
2022/07/10 05:32:07;;;;;;;3.13;1.08;;;24.90;52.30;;;;;;5041439;28;20053;-82
2022/07/10 05:34:33;;;;;;;2.17;1.17;;;25.00;52.90;;;;;;5042320;28;20104;-81
2022/07/10 05:36:59;;;;;;;2.20;1.10;;;25.10;52.60;;;;;;5048262;28;20112;-80
2022/07/10 05:39:26;;;;;;;2.20;0.95;;;25.20;52.40;;;;;;5040062;28;20060;-82
2022/07/10 05:41:52;;;;;;;2.50;1.00;;;25.20;51.70;;;;;;5045396;28;20090;-79
2022/07/10 05:44:19;;;;;;;2.42;1.20;;;25.30;51.70;;;;;;5050505;28;20036;-83
2022/07/10 05:46:45;;;;;;;3.15;1.17;;;25.30;51.90;;;;;;5046523;28;20167;-79
2022/07/10 05:49:12;;;;;;;3.25;1.20;;;25.30;52.10;;;;;;5047221;28;20033;-77
2022/07/10 05:51:38;;;;;;;2.47;0.90;;;25.30;52.10;;;;;;5034490;28;20800;-84
2022/07/10 05:54:03;;;;;;;8.02;1.42;;;25.40;52.20;;;;;;5044912;28;20032;-77
2022/07/10 05:56:29;;;;;;;2.75;0.90;;;25.40;51.50;;;;;;5035122;28;20079;-76
2022/07/10 05:58:56;;;;;;;2.83;0.90;;;25.50;51.20;;;;;;5043052;28;20450;-76
2022/07/10 06:01:22;;;;;;;2.33;1.27;;;25.50;51.40;;;;;;5033948;28;20061;-76
2022/07/10 06:03:48;;;;;;;8.32;2.28;;;25.50;51.40;;;;;;5041028;28;20029;-77
2022/07/10 06:06:15;;;;;;;2.15;0.90;;;25.50;49.50;;;;;;5047901;28;20111;-76
2022/07/10 06:08:41;;;;;;;2.47;0.93;;;25.50;50.50;;;;;;5045191;28;20023;-80
2022/07/10 06:11:07;;;;;;;3.10;1.10;;;25.50;50.60;;;;;;5049497;28;20123;-84
2022/07/10 06:13:32;;;;;;;5.10;1.55;;;25.50;51.00;;;;;;5045380;28;20116;-80
2022/07/10 06:15:58;;;;;;;3.72;1.00;;;25.50;51.10;;;;;;5045684;28;20032;-79
2022/07/10 06:18:23;;;;;;;2.00;1.20;;;25.50;50.80;;;;;;5036014;28;20109;-78
2022/07/10 06:20:49;;;;;;;2.70;1.25;;;25.60;51.50;;;;;;5042948;28;20389;-78
2022/07/10 06:23:15;;;;;;;1.80;1.10;;;25.60;51.70;;;;;;5034122;28;20469;-78
2022/07/10 06:25:40;;;;;;;4.15;1.67;;;25.60;51.70;;;;;;5033979;28;20083;-78
2022/07/10 06:28:06;;;;;;;2.33;1.20;;;25.60;52.40;;;;;;5042295;28;20029;-78
2022/07/10 06:30:32;;;;;;;2.10;1.33;;;25.60;51.50;;;;;;5053089;28;20037;-78
2022/07/10 06:32:57;;;;;;;1.92;1.00;;;25.60;50.60;;;;;;5054010;28;20037;-78
2022/07/10 06:35:23;;;;;;;1.92;0.90;;;25.50;50.50;;;;;;5053899;28;20021;-78
2022/07/10 06:37:49;;;;;;;1.17;0.90;;;25.50;50.60;;;;;;5034434;28;20040;-78
2022/07/10 06:40:15;;;;;;;2.28;0.95;;;25.60;51.50;;;;;;5052831;28;20057;-78
2022/07/10 06:42:40;;;;;;;3.20;1.40;;;25.70;51.90;;;;;;5053582;28;20454;-78
2022/07/10 06:45:07;;;;;;;1.83;1.00;;;25.70;51.20;;;;;;5053585;28;20041;-78
2022/07/10 06:50:17;;;;;;;3.58;1.02;;;25.80;50.40;;;;;;5053765;28;20035;-78
2022/07/10 06:52:43;;;;;;;2.78;1.08;;;25.90;50.90;;;;;;5052843;28;20458;-78
2022/07/10 06:55:09;;;;;;;2.75;1.20;;;25.90;50.40;;;;;;5036047;28;20021;-78
2022/07/10 06:57:35;;;;;;;3.00;1.33;;;25.90;49.50;;;;;;5034493;28;20371;-78
2022/07/10 07:00:01;;;;;;;6.75;1.67;;;25.90;49.30;;;;;;5052945;28;20377;-78
2022/07/10 07:02:27;;;;;;;1.52;0.88;;;25.90;48.90;;;;;;5053332;28;20079;-78
2022/07/10 07:04:52;;;;;;;2.85;1.23;;;25.90;49.10;;;;;;5053322;28;20426;-78
2022/07/10 07:07:18;;;;;;;1.10;0.82;;;25.90;49.20;;;;;;5051691;28;20374;-78
2022/07/10 07:09:44;;;;;;;1.42;0.80;;;26.00;49.20;;;;;;5051870;28;20021;-77
2022/07/10 07:12:10;;;;;;;1.75;1.20;;;26.10;48.70;;;;;;5035858;28;20067;-78
2022/07/10 07:14:36;;;;;;;1.52;0.93;;;26.20;47.40;;;;;;5052816;28;20052;-77
2022/07/10 07:17:06;;;;;;;1.73;0.90;;;26.20;46.90;;;;;;5052887;28;20055;-77
2022/07/10 07:23:09;;;;;;;6.33;1.50;;;26.30;46.00;;;;;;5051517;28;20017;-77
2022/07/10 07:25:04;;;;;;;1.88;1.02;;;26.30;45.20;;;;;;5036149;28;20044;-78
2022/07/10 07:27:30;;;;;;;2.78;1.10;;;26.30;44.70;;;;;;5032439;28;20075;-78
2022/07/10 07:29:55;;;;;;;1.90;0.80;;;26.40;45.20;;;;;;5046695;28;20033;-77
2022/07/10 07:32:21;;;;;;;1.88;1.17;;;26.50;45.10;;;;;;5032890;28;20059;-78
2022/07/10 07:34:47;;;;;;;2.35;0.93;;;26.50;44.70;;;;;;5033060;28;20025;-76
2022/07/10 07:37:12;;;;;;;1.00;0.70;;;26.60;44.70;;;;;;5032947;28;20021;-77
2022/07/10 07:39:38;;;;;;;1.15;0.65;;;26.70;44.70;;;;;;5048965;28;20085;-76
2022/07/10 07:42:04;;;;;;;1.35;0.57;;;26.70;44.50;;;;;;5052777;28;20037;-76
2022/07/10 07:44:29;;;;;;;0.70;0.50;;;26.80;43.70;;;;;;5052844;28;20103;-77
2022/07/10 07:46:55;;;;;;;1.30;0.68;;;26.90;43.30;;;;;;5053348;28;20443;-77
2022/07/10 07:49:21;;;;;;;2.25;0.68;;;26.90;43.10;;;;;;5045246;28;21886;-77
2022/07/10 07:51:48;;;;;;;5.60;1.10;;;27.00;42.90;;;;;;5042490;28;20067;-72
2022/07/10 07:54:15;;;;;;;21.15;2.58;;;27.00;43.00;;;;;;5037793;28;20027;-75
2022/07/10 07:56:41;;;;;;;7.25;1.50;;;27.10;43.10;;;;;;5019919;28;20398;-74
2022/07/10 07:59:07;;;;;;;7.05;0.95;;;27.20;43.20;;;;;;5048300;28;20029;-82
2022/07/10 08:01:33;;;;;;;5.05;1.20;;;27.30;43.00;;;;;;5041676;28;20056;-75
2022/07/10 08:03:58;;;;;;;3.20;0.90;;;27.40;42.70;;;;;;5043352;28;20044;-75
2022/07/10 08:06:24;;;;;;;1.48;0.70;;;27.40;40.60;;;;;;5035689;28;20029;-73
2022/07/10 08:08:50;;;;;;;1.50;0.52;;;27.40;41.40;;;;;;5046994;28;20382;-74
2022/07/10 08:11:16;;;;;;;2.90;0.85;;;27.40;41.60;;;;;;5038871;28;20049;-76
2022/07/10 08:13:43;;;;;;;2.58;0.80;;;27.50;40.70;;;;;;5044818;28;20078;-77
2022/07/10 08:16:08;;;;;;;1.40;0.45;;;27.60;41.30;;;;;;5038271;28;20495;-75
2022/07/10 08:18:34;;;;;;;3.00;0.60;;;27.60;41.00;;;;;;5044135;28;20025;-75
2022/07/10 08:21:00;;;;;;;0.90;0.30;;;27.60;40.20;;;;;;5042378;28;20027;-76
2022/07/10 08:23:26;;;;;;;1.40;0.55;;;27.70;40.30;;;;;;5041357;28;20076;-75
2022/07/10 08:25:51;;;;;;;2.60;0.45;;;27.80;40.40;;;;;;5045167;28;20061;-76
2022/07/10 08:28:17;;;;;;;0.60;0.40;;;27.80;40.40;;;;;;5042065;28;20033;-76
2022/07/10 08:30:43;;;;;;;0.32;0.30;;;27.90;41.00;;;;;;5028169;28;20060;-85
2022/07/10 08:33:09;;;;;;;4.20;0.40;;;27.90;40.00;;;;;;5045080;28;20029;-76
2022/07/10 08:35:34;;;;;;;1.48;0.50;;;27.90;39.20;;;;;;5038614;28;20082;-77
2022/07/10 08:38:01;;;;;;;0.80;0.47;;;27.90;38.70;;;;;;5045431;28;20071;-77
2022/07/10 08:40:35;;;;;;;0.70;0.40;;;28.00;39.50;;;;;;5047999;28;20381;-77
2022/07/10 08:43:01;;;;;;;0.90;0.40;;;28.00;39.00;;;;;;5052251;28;20060;-77
2022/07/10 08:45:30;;;;;;;1.00;0.35;;;28.10;38.80;;;;;;5047356;28;20265;-77
2022/07/10 08:48:00;;;;;;;0.68;0.50;;;28.10;39.70;;;;;;5058115;28;20071;-77
2022/07/10 08:50:28;;;;;;;1.48;0.40;;;28.20;39.50;;;;;;5041650;28;20311;-78
2022/07/10 08:53:00;;;;;;;0.75;0.55;;;28.30;40.00;;;;;;5048460;28;20029;-79
2022/07/10 08:55:26;;;;;;;0.95;0.52;;;28.40;39.10;;;;;;5043854;28;20028;-77
2022/07/10 08:57:53;;;;;;;0.65;0.50;;;28.40;38.90;;;;;;5035840;28;20038;-77
2022/07/10 09:00:19;;;;;;;0.77;0.30;;;28.50;38.90;;;;;;5046929;28;20359;-77
2022/07/10 09:02:45;;;;;;;1.08;0.57;;;28.60;39.30;;;;;;5040196;28;20044;-77
2022/07/10 09:05:10;;;;;;;1.95;0.50;;;28.70;39.40;;;;;;5045509;28;20474;-77
2022/07/10 09:07:36;;;;;;;1.67;0.50;;;28.70;38.80;;;;;;5042168;28;20029;-78
2022/07/10 09:10:07;;;;;;;5.45;0.85;;;28.80;38.90;;;;;;5036591;28;20025;-76
2022/07/10 09:12:50;;;;;;;8.63;0.57;;;28.80;38.60;;;;;;5026352;28;20346;-76
2022/07/10 09:15:17;;;;;;;1.05;0.40;;;28.90;38.10;;;;;;5036944;28;20033;-76
2022/07/10 09:18:09;;;;;;;2.15;0.55;;;29.00;38.60;;;;;;5035367;28;20029;-76
2022/07/10 09:20:38;;;;;;;0.70;0.50;;;29.00;37.00;;;;;;5045659;28;20038;-76
2022/07/10 09:23:20;;;;;;;1.55;0.47;;;29.10;38.20;;;;;;5046187;28;20025;-76
2022/07/10 09:25:50;;;;;;;0.43;0.38;;;29.10;37.80;;;;;;5040661;28;20021;-76
2022/07/10 09:28:17;;;;;;;0.85;0.40;;;29.20;38.60;;;;;;5043506;28;20079;-76
2022/07/10 09:30:43;;;;;;;2.30;0.60;;;29.30;38.20;;;;;;5045473;28;20048;-76
2022/07/10 09:33:26;;;;;;;2.45;0.55;;;29.30;38.10;;;;;;5047503;28;20405;-75
2022/07/10 09:36:08;;;;;;;2.10;0.60;;;29.30;36.80;;;;;;5048490;28;20060;-76
2022/07/10 09:38:43;;;;;;;1.30;0.50;;;29.40;37.50;;;;;;5046520;28;20033;-76
2022/07/10 09:41:23;;;;;;;0.85;0.30;;;29.40;37.80;;;;;;5039393;28;20029;-76
2022/07/10 09:43:53;;;;;;;0.68;0.30;;;29.50;38.10;;;;;;5045230;28;20091;-76
2022/07/10 09:46:21;;;;;;;;;;;29.60;38.10;;;;;;5054537;28;20020;-76
2022/07/10 09:48:47;;;;;;;2.78;0.60;;;29.70;37.20;;;;;;5054169;28;19904;-76
2022/07/10 09:51:12;;;;;;;1.23;0.40;;;29.70;37.50;;;;;;5050104;28;20452;-77
2022/07/10 09:53:40;;;;;;;0.75;0.30;;;29.80;37.30;;;;;;5039855;28;20033;-75
2022/07/10 09:56:11;;;;;;;0.65;0.40;;;29.90;37.70;;;;;;5044304;28;20068;-76
2022/07/10 09:58:38;;;;;;;1.27;0.70;;;30.00;37.30;;;;;;5049259;28;20029;-76
2022/07/10 10:01:06;;;;;;;0.98;0.50;;;30.10;37.60;;;;;;5044027;28;20111;-75
2022/07/10 10:03:34;;;;;;;2.05;0.60;;;30.10;37.80;;;;;;5036893;28;20075;-76
2022/07/10 10:06:11;;;;;;;0.47;0.30;;;30.20;37.40;;;;;;5039236;28;20059;-76
2022/07/10 10:08:44;;;;;;;0.73;0.30;;;30.20;37.50;;;;;;5047485;28;20108;-76
2022/07/10 10:11:15;;;;;;;0.43;0.30;;;30.30;37.90;;;;;;5037359;28;20036;-78
2022/07/10 10:13:42;;;;;;;1.15;0.50;;;30.40;37.80;;;;;;5039001;28;20022;-76
2022/07/10 10:16:09;;;;;;;0.77;0.45;;;30.50;37.40;;;;;;5044646;28;20390;-76
2022/07/10 10:20:36;;;;;;;1.08;0.40;;;30.60;37.40;;;;;;5041105;28;20100;-76
2022/07/10 10:21:23;;;;;;;1.30;0.50;;;30.60;36.70;;;;;;5045254;28;20098;-76
2022/07/10 10:23:50;;;;;;;1.33;0.52;;;30.70;37.10;;;;;;5046503;28;20063;-76
2022/07/10 10:26:17;;;;;;;1.38;0.55;;;30.80;36.40;;;;;;5040735;28;20136;-76
2022/07/10 10:28:43;;;;;;;1.77;0.43;;;30.90;37.10;;;;;;5036085;28;20017;-76
2022/07/10 10:31:10;;;;;;;0.90;0.40;;;31.00;36.60;;;;;;5043276;28;20123;-76
2022/07/10 10:33:37;;;;;;;1.58;0.68;;;31.10;37.00;;;;;;5038337;28;20022;-76
2022/07/10 10:36:03;;;;;;;1.00;0.47;;;31.30;36.70;;;;;;5039588;28;20029;-75
2022/07/10 10:38:55;;;;;;;0.93;0.30;;;31.40;36.60;;;;;;5040780;28;20025;-75
2022/07/10 10:41:32;;;;;;;2.35;0.77;;;31.50;36.20;;;;;;5039507;28;20489;-76
2022/07/10 10:44:08;;;;;;;0.70;0.50;;;31.60;35.70;;;;;;5019373;28;20036;-76
2022/07/10 10:46:34;;;;;;;0.80;0.60;;;31.70;36.20;;;;;;5035383;28;20029;-76
2022/07/10 10:49:08;;;;;;;1.10;0.50;;;31.80;36.20;;;;;;5043321;28;20371;-75
2022/07/10 10:51:59;;;;;;;0.43;0.35;;;31.80;35.80;;;;;;5041936;28;20072;-76
2022/07/10 10:54:26;;;;;;;1.70;0.60;;;31.90;34.80;;;;;;5036997;28;20041;-76
2022/07/10 10:57:14;;;;;;;1.17;0.55;;;31.90;35.10;;;;;;5041287;28;20500;-77
2022/07/10 10:59:49;;;;;;;0.88;0.60;;;32.00;35.90;;;;;;5046275;28;20440;-76
2022/07/10 11:02:34;;;;;;;1.15;0.47;;;32.00;35.70;;;;;;5039694;28;20034;-76
2022/07/10 11:05:12;;;;;;;0.90;0.40;;;32.20;35.70;;;;;;5051333;28;20029;-76
2022/07/10 11:08:00;;;;;;;3.42;0.88;;;32.30;35.60;;;;;;5039753;28;20159;-76
2022/07/10 11:10:26;;;;;;;2.53;0.90;;;32.60;35.50;;;;;;5041232;28;20112;-75
2022/07/10 11:13:16;;;;;;;1.10;0.55;;;32.60;33.80;;;;;;5041971;28;20116;-85
2022/07/10 11:15:46;;;;;;;1.73;0.80;;;32.60;33.70;;;;;;5031778;28;20073;-72
2022/07/10 11:18:18;;;;;;;2.55;0.40;;;32.80;35.00;;;;;;5041579;28;20048;-82
2022/07/10 11:20:49;;;;;;;0.38;0.30;;;33.00;35.20;;;;;;5019023;28;20025;-84
2022/07/10 11:23:53;;;;;;;2.08;0.80;;;33.20;34.90;;;;;;5044484;28;20034;-84
2022/07/10 11:26:27;;;;;;;2.75;0.88;;;33.40;33.10;;;;;;5039434;28;20453;-84
2022/07/10 11:28:55;;;;;;;3.58;0.80;;;33.60;34.50;;;;;;5017679;28;20029;-84
2022/07/10 11:31:26;;;;;;;0.65;0.43;;;33.70;35.40;;;;;;5040684;28;20045;-84
2022/07/10 11:33:53;;;;;;;1.92;0.63;;;33.80;36.70;;;;;;5042104;28;20377;-74
2022/07/10 11:36:29;;;;;;;1.63;0.77;;;33.90;37.00;;;;;;5047820;28;20033;-74
2022/07/10 11:39:05;;;;;;;0.40;0.40;;;34.30;36.40;;;;;;5040933;28;20029;-74
2022/07/10 11:41:31;;;;;;;3.33;0.50;;;34.60;35.10;;;;;;5062169;28;20031;-74
2022/07/10 11:43:59;;;;;;;2.10;0.93;;;35.00;35.70;;;;;;5047759;28;20088;-74
2022/07/10 11:46:27;;;;;;;1.98;0.73;;;35.40;36.20;;;;;;5045697;28;20142;-74
2022/07/10 11:48:54;;;;;;;1.88;0.75;;;35.70;36.70;;;;;;5039568;28;20036;-75
2022/07/10 11:51:31;;;;;;;1.45;0.70;;;36.00;37.30;;;;;;5036742;28;20040;-75
2022/07/10 11:54:05;;;;;;;0.95;0.60;;;36.40;37.50;;;;;;5043359;28;20135;-76
2022/07/10 11:56:36;;;;;;;5.50;1.17;;;36.60;37.50;;;;;;5042053;28;20048;-75
2022/07/10 11:59:06;;;;;;;2.45;0.60;;;36.70;37.00;;;;;;5046564;28;20037;-75
2022/07/10 12:01:35;;;;;;;;;;;36.80;37.20;;;;;;5041158;28;20030;-74
2022/07/10 12:04:08;;;;;;;1.58;0.80;;;36.90;37.50;;;;;;5041746;28;20625;-75
2022/07/10 12:06:36;;;;;;;2.13;1.00;;;36.80;37.40;;;;;;5047462;28;20030;-75
2022/07/10 12:09:04;;;;;;;7.30;1.02;;;36.80;38.20;;;;;;5038625;28;20516;-75
2022/07/10 12:11:29;;;;;;;2.00;0.50;;;36.60;38.30;;;;;;5044940;28;20060;-76
2022/07/10 12:14:16;;;;;;;2.15;0.60;;;36.70;38.10;;;;;;5037888;28;20456;-75
2022/07/10 12:16:43;;;;;;;3.25;0.80;;;36.80;36.80;;;;;;5040917;28;20032;-76
2022/07/10 12:19:11;;;;;;;3.17;0.90;;;36.70;37.10;;;;;;5042013;28;20025;-76
2022/07/10 12:21:39;;;;;;;2.17;0.70;;;36.90;37.20;;;;;;5049752;28;20086;-76
2022/07/10 12:24:05;;;;;;;3.80;0.70;;;37.00;36.80;;;;;;5048648;28;20052;-76
2022/07/10 12:26:35;;;;;;;3.17;0.68;;;36.80;36.90;;;;;;5044929;28;20025;-76
2022/07/10 12:29:02;;;;;;;1.98;0.63;;;36.40;37.00;;;;;;5055376;28;20032;-83
2022/07/10 12:31:32;;;;;;;4.50;1.10;;;36.20;37.50;;;;;;5023569;28;20081;-83
2022/07/10 12:34:03;;;;;;;4.15;0.82;;;36.30;37.80;;;;;;5050170;28;20028;-76
2022/07/10 12:36:52;;;;;;;6.78;0.70;;;36.30;38.00;;;;;;5046808;28;20116;-78
2022/07/10 12:39:21;;;;;;;1.47;0.80;;;36.50;37.50;;;;;;5045564;28;20107;-76
2022/07/10 12:42:04;;;;;;;5.93;0.80;;;36.60;37.30;;;;;;5027001;28;20030;-76
2022/07/10 12:44:47;;;;;;;1.75;0.65;;;36.70;36.50;;;;;;5050897;28;20030;-77
2022/07/10 12:47:17;;;;;;;7.85;0.90;;;36.80;36.90;;;;;;5046942;28;20032;-85
2022/07/10 12:50:03;;;;;;;2.35;0.70;;;36.80;36.70;;;;;;5041198;28;20039;-84
2022/07/10 12:52:34;;;;;;;7.32;0.80;;;36.90;37.10;;;;;;5056308;28;20154;-82
2022/07/10 12:55:15;;;;;;;1.38;0.63;;;36.90;37.70;;;;;;5051964;28;20120;-84
2022/07/10 12:57:57;;;;;;;4.65;0.80;;;36.90;37.80;;;;;;5055606;28;20740;-83
2022/07/10 13:00:25;;;;;;;2.17;0.70;;;37.00;38.10;;;;;;5052048;28;20173;-77